createdAt,value
2019-05-23T00:00:34.875Z,11.45
2019-05-23T00:01:34.777Z,11.45
2019-05-23T00:02:34.845Z,11.27
2019-05-23T00:03:34.711Z,11.41
2019-05-23T00:04:34.798Z,11.44
2019-05-23T00:05:34.783Z,11.19
2019-05-23T00:06:34.733Z,11.25
2019-05-23T00:07:34.751Z,11.23
2019-05-23T00:08:34.764Z,11.18
2019-05-23T00:09:34.732Z,11.27
2019-05-23T00:10:34.873Z,11.31
2019-05-23T00:11:34.785Z,11.25
2019-05-23T00:12:34.787Z,11.31
2019-05-23T00:13:34.773Z,11.3
2019-05-23T00:14:34.796Z,11.31
2019-05-23T00:15:34.806Z,11.25
2019-05-23T00:16:34.772Z,11.35
2019-05-23T00:17:34.785Z,11.33
2019-05-23T00:18:34.806Z,11.31
2019-05-23T00:19:34.771Z,11.26
2019-05-23T00:20:34.862Z,11.27
2019-05-23T00:21:34.837Z,11.33
2019-05-23T00:22:34.793Z,11.27
2019-05-23T00:23:35.081Z,11.31
2019-05-23T00:24:34.790Z,11.33
2019-05-23T00:25:34.849Z,11.23
2019-05-23T00:26:34.826Z,11.27
2019-05-23T00:27:34.658Z,10.97
2019-05-23T00:28:34.913Z,10.95
2019-05-23T00:29:34.845Z,10.83
2019-05-23T00:30:34.805Z,10.71
2019-05-23T00:31:34.795Z,10.68
2019-05-23T00:32:34.861Z,10.68
2019-05-23T00:33:34.867Z,10.75
2019-05-23T00:34:34.796Z,10.82
2019-05-23T00:35:35.010Z,10.68
2019-05-23T00:36:34.805Z,10.8
2019-05-23T00:37:34.794Z,10.62
2019-05-23T00:38:34.797Z,10.48
2019-05-23T00:39:34.809Z,10.53
2019-05-23T00:40:34.836Z,10.49
2019-05-23T00:41:34.845Z,10.59
2019-05-23T00:42:34.841Z,10.58
2019-05-23T00:43:34.890Z,10.57
2019-05-23T00:44:34.837Z,10.57
2019-05-23T00:45:34.921Z,10.51
2019-05-23T00:46:34.797Z,10.43
2019-05-23T00:47:34.801Z,10.33
2019-05-23T00:52:52.658Z,10.38
2019-05-23T00:59:31.949Z,10.24
2019-05-23T00:59:43.000Z,10.07
2019-05-23T01:00:42.961Z,10.2
2019-05-23T01:01:43.275Z,10.09
2019-05-23T01:02:42.981Z,10
2019-05-23T01:03:43.002Z,9.95
2019-05-23T01:04:42.988Z,10.02
2019-05-23T01:05:42.981Z,10.03
2019-05-23T01:06:43.052Z,10.17
2019-05-23T01:07:42.977Z,9.82
2019-05-23T01:08:42.979Z,10.05
2019-05-23T01:09:42.963Z,9.94
2019-05-23T01:10:43.457Z,9.92
2019-05-23T01:11:42.991Z,9.85
2019-05-23T01:12:43.011Z,9.94
2019-05-23T01:13:43.051Z,10.09
2019-05-23T01:14:42.965Z,10.06
2019-05-23T01:15:43.012Z,10.09
2019-05-23T01:16:43.122Z,10.1
2019-05-23T01:17:42.976Z,10.07
2019-05-23T01:18:43.077Z,10.23
2019-05-23T01:19:43.047Z,10.07
2019-05-23T01:20:43.011Z,10.21
2019-05-23T01:21:42.982Z,10.17
2019-05-23T01:22:42.947Z,10.12
2019-05-23T01:23:43.034Z,10.1
2019-05-23T01:24:43.138Z,10.06
2019-05-23T01:25:43.085Z,9.94
2019-05-23T01:26:43.016Z,9.82
2019-05-23T01:27:43.998Z,9.9
2019-05-23T01:28:43.063Z,9.84
2019-05-23T01:29:49.458Z,9.85
2019-05-23T01:30:43.326Z,9.88
2019-05-23T01:31:43.050Z,9.88
2019-05-23T01:32:43.122Z,9.9
2019-05-23T01:33:43.046Z,9.97
2019-05-23T01:34:43.043Z,9.92
2019-05-23T01:35:43.182Z,9.9
2019-05-23T01:36:43.036Z,9.97
2019-05-23T01:37:43.082Z,9.99
2019-05-23T01:38:43.069Z,9.9
2019-05-23T01:39:43.055Z,9.94
2019-05-23T01:40:43.044Z,9.95
2019-05-23T01:41:42.989Z,10.15
2019-05-23T01:42:42.997Z,9.91
2019-05-23T01:43:43.021Z,9.99
2019-05-23T01:44:43.009Z,9.95
2019-05-23T01:45:43.114Z,10.02
2019-05-23T01:46:43.084Z,9.9
2019-05-23T01:47:43.156Z,10.02
2019-05-23T01:48:43.852Z,9.92
2019-05-23T01:49:43.286Z,9.85
2019-05-23T01:50:43.037Z,9.88
2019-05-23T01:51:43.075Z,9.87
2019-05-23T01:52:43.062Z,9.95
2019-05-23T01:53:43.067Z,9.87
2019-05-23T01:54:43.038Z,9.91
2019-05-23T01:55:43.041Z,9.99
2019-05-23T01:58:50.299Z,9.92
2019-05-23T02:03:18.219Z,9.74
2019-05-23T02:03:29.256Z,9.81
2019-05-23T02:04:29.240Z,9.8
2019-05-23T02:05:29.199Z,9.82
2019-05-23T02:06:29.172Z,9.84
2019-05-23T02:07:29.238Z,9.77
2019-05-23T02:08:29.268Z,9.69
2019-05-23T02:09:29.227Z,9.7
2019-05-23T02:10:29.251Z,9.84
2019-05-23T02:11:29.688Z,9.8
2019-05-23T02:12:29.185Z,9.72
2019-05-23T02:13:29.649Z,9.7
2019-05-23T02:14:29.224Z,9.74
2019-05-23T02:15:29.314Z,9.74
2019-05-23T02:16:29.171Z,9.73
2019-05-23T02:17:29.279Z,9.69
2019-05-23T02:18:37.414Z,9.67
2019-05-23T02:19:29.245Z,9.72
2019-05-23T02:20:29.230Z,9.52
2019-05-23T02:21:29.285Z,9.58
2019-05-23T02:22:29.226Z,9.48
2019-05-23T02:23:45.013Z,9.49
2019-05-23T02:24:45.008Z,9.59
2019-05-23T02:25:45.120Z,9.58
2019-05-23T02:26:44.981Z,9.56
2019-05-23T02:27:44.997Z,9.63
2019-05-23T02:28:44.979Z,9.67
2019-05-23T02:29:45.017Z,9.67
2019-05-23T02:30:44.989Z,9.73
2019-05-23T02:31:45.017Z,9.62
2019-05-23T02:32:44.960Z,9.62
2019-05-23T02:33:44.984Z,9.72
2019-05-23T02:34:44.961Z,9.64
2019-05-23T02:35:45.004Z,9.72
2019-05-23T02:36:44.989Z,9.63
2019-05-23T02:37:44.991Z,9.56
2019-05-23T02:38:45.421Z,9.45
2019-05-23T02:44:01.398Z,9.24
2019-05-23T02:44:12.763Z,9.27
2019-05-23T02:45:12.380Z,9.31
2019-05-23T02:46:12.413Z,9.3
2019-05-23T02:47:12.419Z,9.29
2019-05-23T02:48:12.442Z,9.29
2019-05-23T02:49:12.454Z,9.33
2019-05-23T02:50:12.469Z,9.27
2019-05-23T02:51:12.710Z,9.24
2019-05-23T02:52:12.472Z,8.96
2019-05-23T02:53:12.393Z,8.99
2019-05-23T02:54:12.409Z,8.9
2019-05-23T02:55:12.456Z,8.99
2019-05-23T02:56:12.418Z,9
2019-05-23T02:57:12.382Z,9.05
2019-05-23T02:58:12.434Z,9.02
2019-05-23T02:59:12.434Z,9.12
2019-05-23T03:00:12.963Z,9.03
2019-05-23T03:01:12.410Z,9.08
2019-05-23T03:02:12.435Z,9.08
2019-05-23T03:03:12.425Z,9.21
2019-05-23T03:04:12.642Z,9.21
2019-05-23T03:05:12.443Z,9.27
2019-05-23T03:06:12.498Z,9.19
2019-05-23T03:07:12.446Z,8.97
2019-05-23T03:08:12.457Z,9.12
2019-05-23T03:09:12.451Z,9.19
2019-05-23T03:10:12.531Z,9.27
2019-05-23T03:14:41.515Z,9.33
2019-05-23T03:15:41.521Z,9.24
2019-05-23T03:16:41.630Z,9.27
2019-05-23T03:17:41.541Z,9.18
2019-05-23T03:18:51.350Z,8.89
2019-05-23T03:23:58.680Z,8.72
2019-05-23T03:24:10.021Z,8.69
2019-05-23T03:25:09.785Z,8.66
2019-05-23T03:26:09.848Z,8.71
2019-05-23T03:27:09.740Z,8.68
2019-05-23T03:28:09.707Z,8.78
2019-05-23T03:29:09.726Z,8.54
2019-05-23T03:30:09.984Z,8.68
2019-05-23T03:31:35.385Z,8.86
2019-05-23T03:32:09.685Z,8.87
2019-05-23T03:33:09.754Z,8.89
2019-05-23T03:34:09.695Z,8.89
2019-05-23T03:35:09.830Z,8.82
2019-05-23T03:36:09.816Z,8.77
2019-05-23T03:37:09.740Z,8.77
2019-05-23T03:38:09.747Z,8.77
2019-05-23T03:39:09.693Z,8.69
2019-05-23T03:40:09.740Z,8.69
2019-05-23T03:41:09.746Z,8.72
2019-05-23T03:42:09.717Z,8.79
2019-05-23T03:43:09.716Z,8.89
2019-05-23T03:44:09.758Z,8.79
2019-05-23T03:45:09.719Z,8.75
2019-05-23T03:46:09.703Z,8.84
2019-05-23T03:47:09.681Z,8.82
2019-05-23T03:48:09.731Z,9
2019-05-23T03:49:09.743Z,8.92
2019-05-23T03:50:10.690Z,8.87
2019-05-23T03:51:09.751Z,8.84
2019-05-23T03:52:09.757Z,8.97
2019-05-23T03:53:10.035Z,8.97
2019-05-23T03:54:10.000Z,8.92
2019-05-23T03:55:09.743Z,8.9
2019-05-23T03:56:09.732Z,8.92
2019-05-23T03:57:09.725Z,9
2019-05-23T03:58:09.721Z,8.92
2019-05-23T03:59:09.864Z,8.95
2019-05-23T04:00:09.800Z,8.99
2019-05-23T04:01:09.745Z,9
2019-05-23T04:02:09.742Z,9.12
2019-05-23T04:03:13.354Z,9.03
2019-05-23T04:04:09.840Z,9.03
2019-05-23T04:05:09.724Z,9.08
2019-05-23T04:06:09.750Z,8.96
2019-05-23T04:07:09.786Z,8.92
2019-05-23T04:08:09.744Z,9
2019-05-23T04:09:09.792Z,8.89
2019-05-23T04:10:09.804Z,8.81
2019-05-23T04:11:09.768Z,8.89
2019-05-23T04:12:09.777Z,8.9
2019-05-23T04:13:09.817Z,8.9
2019-05-23T04:14:09.723Z,8.74
2019-05-23T04:15:09.757Z,8.81
2019-05-23T04:16:09.780Z,8.79
2019-05-23T04:17:09.784Z,8.81
2019-05-23T04:18:09.747Z,8.84
2019-05-23T04:19:09.826Z,8.72
2019-05-23T04:20:09.871Z,8.86
2019-05-23T04:21:09.797Z,8.81
2019-05-23T04:22:09.782Z,8.78
2019-05-23T04:23:09.866Z,8.87
2019-05-23T04:24:09.770Z,8.87
2019-05-23T04:25:10.480Z,8.92
2019-05-23T04:26:10.914Z,8.9
2019-05-23T04:27:09.797Z,8.87
2019-05-23T04:28:09.802Z,9
2019-05-23T04:29:09.833Z,8.92
2019-05-23T04:30:09.938Z,9
2019-05-23T04:31:12.884Z,9.02
2019-05-23T04:32:13.888Z,9.12
2019-05-23T04:33:09.834Z,9
2019-05-23T04:34:09.857Z,8.9
2019-05-23T04:35:09.803Z,8.81
2019-05-23T04:36:09.790Z,8.89
2019-05-23T04:37:09.862Z,8.9
2019-05-23T04:38:09.812Z,9.03
2019-05-23T04:43:27.209Z,9.16
2019-05-23T04:43:38.310Z,9.05
2019-05-23T04:44:38.234Z,9.11
2019-05-23T04:45:38.179Z,9.02
2019-05-23T04:46:38.178Z,9.09
2019-05-23T04:47:38.245Z,9.13
2019-05-23T04:48:38.232Z,9.11
2019-05-23T04:49:38.187Z,9.13
2019-05-23T04:50:38.723Z,9.22
2019-05-23T04:51:38.322Z,9.22
2019-05-23T04:52:38.296Z,9.21
2019-05-23T04:53:38.462Z,9.21
2019-05-23T04:54:38.202Z,9.3
2019-05-23T04:55:38.289Z,9.29
2019-05-23T04:56:38.359Z,9.3
2019-05-23T04:57:38.218Z,9.27
2019-05-23T04:58:38.237Z,9.29
2019-05-23T04:59:38.197Z,9.44
2019-05-23T05:00:38.239Z,9.47
2019-05-23T05:01:38.393Z,9.4
2019-05-23T05:02:38.194Z,9.45
2019-05-23T05:03:38.242Z,9.39
2019-05-23T05:04:38.548Z,9.26
2019-05-23T05:05:38.213Z,9.49
2019-05-23T05:06:38.228Z,9.49
2019-05-23T05:07:38.209Z,9.4
2019-05-23T05:08:38.189Z,9.49
2019-05-23T05:09:38.241Z,9.44
2019-05-23T05:10:38.291Z,9.31
2019-05-23T05:11:38.211Z,9.27
2019-05-23T05:12:38.237Z,9.21
2019-05-23T05:13:38.455Z,9.4
2019-05-23T05:14:38.230Z,9.34
2019-05-23T05:15:38.256Z,9.3
2019-05-23T05:16:38.283Z,9.34
2019-05-23T05:17:38.348Z,9.47
2019-05-23T05:19:38.241Z,9.48
2019-05-23T05:20:39.290Z,9.48
2019-05-23T05:21:38.290Z,9.63
2019-05-23T05:22:38.277Z,9.69
2019-05-23T05:23:38.257Z,9.8
2019-05-23T05:24:44.232Z,9.63
2019-05-23T05:25:38.276Z,9.67
2019-05-23T05:26:38.238Z,9.84
2019-05-23T05:27:38.254Z,9.94
2019-05-23T05:28:38.291Z,9.94
2019-05-23T05:29:38.299Z,9.97
2019-05-23T05:30:38.383Z,9.91
2019-05-23T05:31:38.303Z,9.97
2019-05-23T05:32:50.114Z,10
2019-05-23T05:33:38.241Z,9.94
2019-05-23T05:34:38.287Z,10.03
2019-05-23T05:35:38.308Z,10.07
2019-05-23T05:36:38.301Z,10.1
2019-05-23T05:37:38.254Z,10.18
2019-05-23T05:38:38.317Z,10.23
2019-05-23T05:39:38.277Z,10.21
2019-05-23T05:40:38.312Z,10.12
2019-05-23T05:41:38.354Z,10.3
2019-05-23T05:42:38.260Z,10.28
2019-05-23T05:43:38.270Z,10.41
2019-05-23T05:44:38.523Z,10.45
2019-05-23T05:45:38.793Z,10.46
2019-05-23T05:46:38.270Z,10.61
2019-05-23T05:47:38.238Z,10.62
2019-05-23T05:48:38.278Z,10.58
2019-05-23T05:49:42.178Z,10.61
2019-05-23T05:50:38.300Z,10.61
2019-05-23T05:51:38.368Z,10.79
2019-05-23T05:52:38.314Z,10.76
2019-05-23T05:53:38.263Z,10.75
2019-05-23T05:54:38.290Z,10.75
2019-05-23T05:55:38.417Z,10.82
2019-05-23T05:56:38.277Z,10.84
2019-05-23T05:57:38.289Z,10.83
2019-05-23T05:58:38.333Z,10.87
2019-05-23T05:59:38.854Z,11.07
2019-05-23T06:00:38.950Z,11.07
2019-05-23T06:01:39.524Z,11.16
2019-05-23T06:02:38.304Z,11.38
2019-05-23T06:03:38.323Z,11.4
2019-05-23T06:04:38.295Z,11.45
2019-05-23T06:05:38.341Z,11.44
2019-05-23T06:06:38.286Z,11.58
2019-05-23T06:07:38.316Z,11.59
2019-05-23T06:08:38.379Z,11.65
2019-05-23T06:09:38.437Z,11.74
2019-05-23T06:10:38.412Z,11.7
2019-05-23T06:11:38.338Z,11.8
2019-05-23T06:12:38.371Z,11.81
2019-05-23T06:13:38.543Z,11.93
2019-05-23T06:14:38.316Z,11.91
2019-05-23T06:15:38.326Z,12.02
2019-05-23T06:16:38.333Z,12.18
2019-05-23T06:17:38.320Z,12.32
2019-05-23T06:18:38.311Z,12.33
2019-05-23T06:19:38.373Z,12.48
2019-05-23T06:20:40.706Z,12.61
2019-05-23T06:21:38.327Z,12.73
2019-05-23T06:22:38.379Z,12.84
2019-05-23T06:23:38.411Z,13.13
2019-05-23T06:24:57.805Z,13.31
2019-05-23T06:25:38.357Z,13.47
2019-05-23T06:26:38.358Z,13.67
2019-05-23T06:27:38.382Z,13.8
2019-05-23T06:28:38.355Z,13.98
2019-05-23T06:29:38.365Z,14.19
2019-05-23T06:30:38.393Z,14.43
2019-05-23T06:31:38.404Z,14.68
2019-05-23T06:32:38.541Z,15.02
2019-05-23T06:33:38.397Z,14.94
2019-05-23T06:34:38.353Z,15.14
2019-05-23T06:35:38.399Z,15.44
2019-05-23T06:36:38.595Z,15.37
2019-05-23T06:37:39.644Z,15.51
2019-05-23T06:38:38.375Z,15.5
2019-05-23T06:43:55.881Z,15.57
2019-05-23T06:44:06.885Z,15.52
2019-05-23T06:45:06.869Z,15.92
2019-05-23T06:46:06.894Z,16.05
2019-05-23T06:47:06.878Z,15.63
2019-05-23T06:48:07.032Z,16.03
2019-05-23T06:49:10.186Z,16.37
2019-05-23T06:50:07.054Z,16.26
2019-05-23T06:51:07.308Z,16.5
2019-05-23T06:52:06.945Z,16.77
2019-05-23T06:53:07.869Z,16.58
2019-05-23T06:54:07.082Z,16.92
2019-05-23T06:55:06.966Z,16.94
2019-05-23T06:56:06.881Z,16.94
2019-05-23T06:57:07.076Z,17.27
2019-05-23T06:58:06.887Z,17.47
2019-05-23T06:59:07.216Z,17.39
2019-05-23T07:00:06.911Z,16.94
2019-05-23T07:01:07.208Z,17.38
2019-05-23T07:02:06.875Z,17.56
2019-05-23T07:03:07.464Z,17.5
2019-05-23T07:04:06.983Z,17.39
2019-05-23T07:05:06.905Z,17.78
2019-05-23T07:06:06.954Z,17.97
2019-05-23T07:07:07.349Z,17.9
2019-05-23T07:08:07.498Z,18.05
2019-05-23T07:09:06.911Z,18.15
2019-05-23T07:10:09.094Z,18.26
2019-05-23T07:11:06.973Z,18.24
2019-05-23T07:12:06.920Z,18.19
2019-05-23T07:13:06.919Z,18.3
2019-05-23T07:14:06.939Z,18.21
2019-05-23T07:15:08.411Z,18.58
2019-05-23T07:16:06.982Z,18.76
2019-05-23T07:17:06.906Z,18.76
2019-05-23T07:18:06.932Z,18.76
2019-05-23T07:19:08.969Z,18.91
2019-05-23T07:20:06.938Z,18.79
2019-05-23T07:21:07.021Z,19.04
2019-05-23T07:22:06.920Z,19.16
2019-05-23T07:23:06.925Z,18.98
2019-05-23T07:24:06.982Z,19.16
2019-05-23T07:25:06.985Z,18.89
2019-05-23T07:26:06.964Z,19.16
2019-05-23T07:27:07.016Z,19.15
2019-05-23T07:28:07.249Z,19.12
2019-05-23T07:29:06.986Z,19.26
2019-05-23T07:30:07.754Z,19.48
2019-05-23T07:31:07.000Z,19.75
2019-05-23T07:32:06.987Z,19.79
2019-05-23T07:33:07.484Z,19.72
2019-05-23T07:34:08.001Z,19.57
2019-05-23T07:35:07.069Z,19.78
2019-05-23T07:36:06.994Z,19.7
2019-05-23T07:37:06.967Z,19.53
2019-05-23T07:38:07.125Z,19.38
2019-05-23T07:39:06.990Z,19.01
2019-05-23T07:40:06.979Z,19.3
2019-05-23T07:41:07.005Z,19.3
2019-05-23T07:45:34.987Z,19.74
2019-05-23T07:46:35.041Z,19.94
2019-05-23T07:47:34.900Z,19.96
2019-05-23T07:48:34.970Z,20.02
2019-05-23T07:49:34.933Z,19.97
2019-05-23T07:50:34.910Z,20.12
2019-05-23T07:51:35.161Z,20.19
2019-05-23T07:52:34.942Z,20.3
2019-05-23T07:53:35.131Z,20.34
2019-05-23T07:54:34.919Z,20.27
2019-05-23T07:55:34.965Z,20.32
2019-05-23T07:56:34.891Z,20.03
2019-05-23T07:57:34.961Z,20.33
2019-05-23T07:58:34.987Z,20.42
2019-05-23T07:59:34.952Z,20.71
2019-05-23T08:00:35.000Z,20.71
2019-05-23T08:01:34.925Z,20.71
2019-05-23T08:02:35.005Z,21.03
2019-05-23T08:03:34.975Z,21.15
2019-05-23T08:04:34.918Z,21.23
2019-05-23T08:05:34.945Z,20.96
2019-05-23T08:06:34.952Z,21
2019-05-23T08:07:38.344Z,20.96
2019-05-23T08:08:34.964Z,20.53
2019-05-23T08:09:34.941Z,20.27
2019-05-23T08:10:39.217Z,20.27
2019-05-23T08:11:35.028Z,20.7
2019-05-23T08:12:34.998Z,20.67
2019-05-23T08:13:34.942Z,19.9
2019-05-23T08:14:34.994Z,20.12
2019-05-23T08:15:34.993Z,20.08
2019-05-23T08:19:25.132Z,20.26
2019-05-23T08:20:24.613Z,20.46
2019-05-23T08:21:24.695Z,20.86
2019-05-23T08:22:24.867Z,20.8
2019-05-23T08:23:24.627Z,21.19
2019-05-23T08:24:24.650Z,21.32
2019-05-23T08:25:26.000Z,20.92
2019-05-23T08:26:24.611Z,20.7
2019-05-23T08:27:24.653Z,20.89
2019-05-23T08:28:24.640Z,20.63
2019-05-23T08:29:31.553Z,20.44
2019-05-23T08:30:24.655Z,20.75
2019-05-23T08:31:24.844Z,20.75
2019-05-23T08:32:24.650Z,20.96
2019-05-23T08:33:24.634Z,21.14
2019-05-23T08:34:43.066Z,21.01
2019-05-23T08:35:24.703Z,21.01
2019-05-23T08:36:24.752Z,21.3
2019-05-23T08:37:24.622Z,21.22
2019-05-23T08:38:24.740Z,21.38
2019-05-23T08:39:24.761Z,21.56
2019-05-23T08:40:24.713Z,21.43
2019-05-23T08:41:24.751Z,21.54
2019-05-23T08:42:24.679Z,21.7
2019-05-23T08:43:24.901Z,21.72
2019-05-23T08:44:24.647Z,21.38
2019-05-23T08:45:24.686Z,21.33
2019-05-23T08:46:24.695Z,21.45
2019-05-23T08:47:24.843Z,21.29
2019-05-23T08:48:24.647Z,21.45
2019-05-23T08:49:24.651Z,21.37
2019-05-23T08:50:24.657Z,20.8
2019-05-23T08:51:24.672Z,20.95
2019-05-23T08:52:24.693Z,21.37
2019-05-23T08:53:24.667Z,21.59
2019-05-23T08:54:25.113Z,21.59
2019-05-23T08:55:24.671Z,21.45
2019-05-23T08:56:25.108Z,21.53
2019-05-23T08:57:24.755Z,21.63
2019-05-23T08:58:24.681Z,21.94
2019-05-23T08:59:24.676Z,22.21
2019-05-23T09:00:24.752Z,21.77
2019-05-23T09:01:24.629Z,21.92
2019-05-23T09:02:24.661Z,22
2019-05-23T09:04:29.427Z,21.94
2019-05-23T09:04:59.684Z,22.14
2019-05-23T09:05:40.431Z,22.44
2019-05-23T09:06:40.456Z,22
2019-05-23T09:07:40.500Z,22.15
2019-05-23T09:08:40.585Z,22.03
2019-05-23T09:09:40.480Z,22.25
2019-05-23T09:10:40.507Z,21.78
2019-05-23T09:11:40.535Z,22.51
2019-05-23T09:12:40.535Z,22.7
2019-05-23T09:13:40.483Z,22.81
2019-05-23T09:14:42.047Z,22.86
2019-05-23T09:15:40.561Z,23.01
2019-05-23T09:16:40.513Z,23.07
2019-05-23T09:17:57.736Z,23.21
2019-05-23T09:18:40.684Z,22.65
2019-05-23T09:19:40.589Z,22.28
2019-05-23T09:20:40.508Z,22.73
2019-05-23T09:21:40.559Z,22.65
2019-05-23T09:22:40.483Z,22.73
2019-05-23T09:23:44.298Z,22.74
2019-05-23T09:24:40.497Z,22.98
2019-05-23T09:25:40.503Z,23.23
2019-05-23T09:26:40.572Z,23.45
2019-05-23T09:27:40.493Z,23.58
2019-05-23T09:28:40.543Z,23.55
2019-05-23T09:29:40.511Z,23.81
2019-05-23T09:30:40.719Z,23.64
2019-05-23T09:31:40.543Z,23.81
2019-05-23T09:32:40.529Z,23.07
2019-05-23T09:33:40.574Z,23.59
2019-05-23T09:34:40.563Z,23.81
2019-05-23T09:35:40.469Z,23.94
2019-05-23T09:36:40.513Z,23.55
2019-05-23T09:37:40.547Z,23.01
2019-05-23T09:38:40.635Z,23.48
2019-05-23T09:39:40.519Z,23.44
2019-05-23T09:40:40.540Z,23.67
2019-05-23T09:41:40.530Z,23.89
2019-05-23T09:42:40.552Z,23.52
2019-05-23T09:43:40.538Z,23.73
2019-05-23T09:44:40.697Z,23.74
2019-05-23T09:45:40.556Z,23.32
2019-05-23T09:46:40.537Z,23.04
2019-05-23T09:47:40.548Z,23.54
2019-05-23T09:48:40.534Z,23.64
2019-05-23T09:49:40.560Z,23.86
2019-05-23T09:50:40.525Z,23.77
2019-05-23T09:55:09.390Z,23.77
2019-05-23T09:56:09.499Z,23.59
2019-05-23T09:57:09.414Z,23.55
2019-05-23T09:58:09.261Z,22.8
2019-05-23T09:59:09.246Z,22.8
2019-05-23T10:00:12.998Z,23.02
2019-05-23T10:01:09.327Z,22.26
2019-05-23T10:02:09.575Z,22.03
2019-05-23T10:03:09.273Z,21.96
2019-05-23T10:04:09.279Z,22.25
2019-05-23T10:05:09.285Z,22.44
2019-05-23T10:06:09.411Z,22.81
2019-05-23T10:07:09.345Z,22.84
2019-05-23T10:08:09.284Z,22.68
2019-05-23T10:09:09.291Z,22.84
2019-05-23T10:10:09.362Z,22.62
2019-05-23T10:11:09.326Z,22.33
2019-05-23T10:14:16.623Z,23.37
2019-05-23T10:14:27.595Z,23.36
2019-05-23T10:15:29.180Z,23.76
2019-05-23T10:16:27.645Z,23.91
2019-05-23T10:17:27.945Z,23.44
2019-05-23T10:18:27.576Z,22.83
2019-05-23T10:19:27.629Z,23.67
2019-05-23T10:20:27.631Z,23.71
2019-05-23T10:21:27.597Z,23.76
2019-05-23T10:22:27.602Z,23.84
2019-05-23T10:23:27.589Z,23.96
2019-05-23T10:24:27.614Z,24.09
2019-05-23T10:25:27.678Z,23.67
2019-05-23T10:30:45.513Z,23.11
2019-05-23T10:30:56.881Z,22.98
2019-05-23T10:31:56.559Z,23.01
2019-05-23T10:32:56.625Z,23.32
2019-05-23T10:33:56.599Z,23.48
2019-05-23T10:34:56.541Z,23.67
2019-05-23T10:36:06.127Z,23.73
2019-05-23T10:36:56.531Z,23.74
2019-05-23T10:37:56.723Z,22.95
2019-05-23T10:38:56.583Z,23.07
2019-05-23T10:39:56.573Z,23.42
2019-05-23T10:40:56.577Z,23.73
2019-05-23T10:41:56.517Z,23.69
2019-05-23T10:42:56.490Z,22.98
2019-05-23T10:43:56.574Z,22.8
2019-05-23T10:44:56.569Z,23.4
2019-05-23T10:45:56.631Z,23.47
2019-05-23T10:46:56.524Z,23.81
2019-05-23T10:47:56.547Z,23.7
2019-05-23T10:48:56.551Z,23.91
2019-05-23T10:49:56.645Z,23.99
2019-05-23T10:50:56.663Z,23.28
2019-05-23T10:51:56.578Z,23.96
2019-05-23T10:52:56.586Z,24.06
2019-05-23T10:53:56.570Z,23.95
2019-05-23T10:54:57.067Z,23.86
2019-05-23T10:55:56.642Z,23.91
2019-05-23T10:56:56.569Z,23.7
2019-05-23T10:57:56.588Z,23.55
2019-05-23T10:58:56.583Z,23.89
2019-05-23T10:59:56.626Z,23.92
2019-05-23T11:00:56.632Z,24.07
2019-05-23T11:01:56.600Z,23.95
2019-05-23T11:02:56.676Z,23.21
2019-05-23T11:03:56.530Z,23.11
2019-05-23T11:04:57.070Z,24.01
2019-05-23T11:05:56.567Z,23.91
2019-05-23T11:06:56.557Z,24.19
2019-05-23T11:07:56.580Z,24.36
2019-05-23T11:08:56.647Z,24.18
2019-05-23T11:09:56.596Z,23.76
2019-05-23T11:10:56.578Z,23.84
2019-05-23T11:11:56.624Z,24.04
2019-05-23T11:12:56.612Z,23.48
2019-05-23T11:13:56.800Z,23.56
2019-05-23T11:14:56.596Z,23.91
2019-05-23T11:15:56.756Z,23.94
2019-05-23T11:16:56.620Z,24.03
2019-05-23T11:17:59.047Z,23.82
2019-05-23T11:18:56.588Z,24.03
2019-05-23T11:19:56.596Z,24.38
2019-05-23T11:26:35.933Z,24.96
2019-05-23T11:27:35.966Z,24.94
2019-05-23T11:28:35.970Z,24.28
2019-05-23T11:29:36.042Z,24.94
2019-05-23T11:30:35.962Z,24.84
2019-05-23T11:31:35.949Z,25.26
2019-05-23T11:32:35.917Z,24.29
2019-05-23T11:33:35.939Z,24.65
2019-05-23T11:34:35.893Z,24.66
2019-05-23T11:35:35.892Z,24.63
2019-05-23T11:36:41.860Z,24.5
2019-05-23T11:37:35.908Z,24.26
2019-05-23T11:38:35.892Z,24.11
2019-05-23T11:39:41.871Z,24.07
2019-05-23T11:40:38.957Z,24.41
2019-05-23T11:41:35.959Z,24.22
2019-05-23T11:42:36.131Z,24.4
2019-05-23T11:44:40.733Z,24.16
2019-05-23T11:44:51.786Z,24.46
2019-05-23T11:45:51.832Z,24.78
2019-05-23T11:46:51.837Z,24.89
2019-05-23T11:47:51.869Z,24.69
2019-05-23T11:48:52.041Z,24.22
2019-05-23T11:49:52.112Z,23.82
2019-05-23T11:50:51.998Z,24.53
2019-05-23T11:51:51.796Z,24.19
2019-05-23T11:52:53.804Z,24.18
2019-05-23T11:54:12.570Z,24.47
2019-05-23T11:54:51.821Z,23.85
2019-05-23T11:55:56.796Z,24.41
2019-05-23T11:56:51.770Z,24.81
2019-05-23T11:57:51.773Z,25.18
2019-05-23T11:58:51.940Z,25.19
2019-05-23T11:59:51.720Z,25.09
2019-05-23T12:00:52.061Z,25.34
2019-05-23T12:01:51.781Z,25.14
2019-05-23T12:02:51.789Z,24.55
2019-05-23T12:03:51.942Z,24.29
2019-05-23T12:04:51.847Z,24.51
2019-05-23T12:05:51.804Z,24.55
2019-05-23T12:07:00.987Z,24.79
2019-05-23T12:07:51.792Z,24.79
2019-05-23T12:08:51.808Z,24.88
2019-05-23T12:09:51.770Z,25.04
2019-05-23T12:10:51.901Z,25.14
2019-05-23T12:11:51.781Z,25.22
2019-05-23T12:12:51.784Z,24.66
2019-05-23T12:13:51.844Z,24.59
2019-05-23T12:14:51.810Z,24.29
2019-05-23T12:15:53.343Z,24.4
2019-05-23T12:16:51.879Z,24.53
2019-05-23T12:17:51.819Z,24.43
2019-05-23T12:18:51.814Z,24.4
2019-05-23T12:19:51.962Z,23.84
2019-05-23T12:20:51.782Z,23.82
2019-05-23T12:21:51.809Z,23.81
2019-05-23T12:22:52.127Z,23.73
2019-05-23T12:23:51.808Z,24.03
2019-05-23T12:29:08.776Z,24.75
2019-05-23T12:29:19.836Z,24.78
2019-05-23T12:30:19.799Z,24.81
2019-05-23T12:31:19.847Z,24.62
2019-05-23T12:32:19.834Z,24.37
2019-05-23T12:33:19.881Z,24.66
2019-05-23T12:34:19.783Z,24.74
2019-05-23T12:35:19.815Z,24.65
2019-05-23T12:36:19.821Z,24.62
2019-05-23T12:37:24.277Z,24.36
2019-05-23T12:38:19.831Z,24.44
2019-05-23T12:39:20.149Z,24.55
2019-05-23T12:40:19.805Z,24.41
2019-05-23T12:45:37.326Z,24.37
2019-05-23T12:45:48.673Z,24.22
2019-05-23T12:46:48.493Z,24.06
2019-05-23T12:47:48.386Z,24.47
2019-05-23T12:48:48.369Z,24.21
2019-05-23T12:49:49.322Z,24.51
2019-05-23T12:50:53.301Z,24.47
2019-05-23T12:51:48.394Z,24.24
2019-05-23T12:52:48.464Z,24.09
2019-05-23T12:53:48.354Z,24.32
2019-05-23T12:54:48.398Z,24.06
2019-05-23T12:55:48.390Z,24.1
2019-05-23T12:56:53.207Z,23.95
2019-05-23T12:57:48.484Z,24.09
2019-05-23T12:59:23.255Z,24.29
2019-05-23T12:59:48.394Z,23.95
2019-05-23T13:00:48.469Z,24.24
2019-05-23T13:01:48.499Z,24.41
2019-05-23T13:02:48.413Z,24.41
2019-05-23T13:03:48.442Z,24.78
2019-05-23T13:04:48.624Z,24.71
2019-05-23T13:05:48.494Z,24.85
2019-05-23T13:06:48.459Z,24.56
2019-05-23T13:07:48.499Z,24.92
2019-05-23T13:08:48.424Z,25.01
2019-05-23T13:09:50.009Z,25.21
2019-05-23T13:10:48.462Z,25.07
2019-05-23T13:11:48.475Z,24.79
2019-05-23T13:12:48.546Z,24.24
2019-05-23T13:13:48.501Z,24.89
2019-05-23T13:14:48.494Z,25.34
2019-05-23T13:15:48.451Z,25.31
2019-05-23T13:16:48.496Z,25.37
2019-05-23T13:17:48.431Z,25.18
2019-05-23T13:18:48.469Z,25.12
2019-05-23T13:19:48.498Z,24.96
2019-05-23T13:20:48.466Z,25.22
2019-05-23T13:21:48.414Z,24.77
2019-05-23T13:22:48.538Z,24.94
2019-05-23T13:23:48.488Z,24.97
2019-05-23T13:24:58.128Z,24.97
2019-05-23T13:25:48.521Z,24.92
2019-05-23T13:26:48.584Z,24.78
2019-05-23T13:27:48.576Z,24.82
2019-05-23T13:28:48.476Z,25.04
2019-05-23T13:29:48.488Z,25.34
2019-05-23T13:30:48.493Z,25.03
2019-05-23T13:31:48.440Z,24.86
2019-05-23T13:32:48.507Z,24.69
2019-05-23T13:33:48.492Z,24.62
2019-05-23T13:34:48.533Z,25.16
2019-05-23T13:35:48.561Z,24.59
2019-05-23T13:36:48.670Z,24.66
2019-05-23T13:37:58.929Z,24.79
2019-05-23T13:38:48.459Z,25.04
2019-05-23T13:39:48.832Z,25
2019-05-23T13:40:48.577Z,25.31
2019-05-23T13:41:48.463Z,24.21
2019-05-23T13:42:48.460Z,24.65
2019-05-23T13:43:48.554Z,24.89
2019-05-23T13:44:48.612Z,25.19
2019-05-23T13:45:48.462Z,25.24
2019-05-23T13:46:48.543Z,25.31
2019-05-23T13:47:48.503Z,25.24
2019-05-23T13:48:48.547Z,25.24
2019-05-23T13:49:52.436Z,25.25
2019-05-23T13:50:48.764Z,25.24
2019-05-23T13:51:48.654Z,25.48
2019-05-23T13:52:48.466Z,25.58
2019-05-23T13:53:48.541Z,25.41
2019-05-23T13:54:48.483Z,25.21
2019-05-23T13:55:48.530Z,25.24
2019-05-23T13:56:53.329Z,24.94
2019-05-23T13:57:48.548Z,24.75
2019-05-23T13:58:48.534Z,24.66
2019-05-23T13:59:48.523Z,24.55
2019-05-23T14:00:48.522Z,24.84
2019-05-23T14:01:48.560Z,24.86
2019-05-23T14:02:48.578Z,24.79
2019-05-23T14:03:48.520Z,25.19